Time;durP1;ratioP1;P1;durP2;ratioP2;P2;SDS_P1;SDS_P2;PMS_P1;PMS_P2;Temp;Humidity;BMP_temperature;BMP_pressure;BME280_temperature;BME280_humidity;BME280_pressure;Samples;Min_cycle;Max_cycle;Signal;HPM_P1;HPM_P2
2022/05/09 00:01:36;;;;;;;0.50;0.40;;;10.20;99.90;;;;;;5052375;28;20202;-76
2022/05/09 00:04:03;;;;;;;0.50;0.40;;;10.10;99.90;;;;;;5052693;28;20203;-77
2022/05/09 00:06:30;;;;;;;0.50;0.40;;;10.10;99.90;;;;;;5052108;28;20220;-76
2022/05/09 00:08:58;;;;;;;0.50;0.40;;;10.10;99.90;;;;;;5051588;28;20191;-76
2022/05/09 00:11:25;;;;;;;0.50;0.40;;;10.20;99.90;;;;;;5051941;28;20199;-77
2022/05/09 00:13:51;;;;;;;0.50;0.40;;;10.20;99.90;;;;;;5051908;28;20201;-76
2022/05/09 00:16:18;;;;;;;0.50;0.40;;;10.10;99.90;;;;;;5051668;28;20852;-77
2022/05/09 00:18:45;;;;;;;0.50;0.40;;;10.10;99.90;;;;;;5050749;28;20247;-77
2022/05/09 00:21:12;;;;;;;0.50;0.40;;;10.10;99.90;;;;;;5051894;28;20207;-77
2022/05/09 00:23:38;;;;;;;0.50;0.40;;;10.10;99.90;;;;;;5052132;28;20196;-76
2022/05/09 00:26:07;;;;;;;0.50;0.40;;;10.00;99.90;;;;;;5051857;28;20224;-77
2022/05/09 00:28:35;;;;;;;0.52;0.40;;;10.10;99.90;;;;;;5051257;28;20195;-76
2022/05/09 00:31:01;;;;;;;0.50;0.40;;;10.10;99.90;;;;;;5051393;28;20196;-77
2022/05/09 00:33:28;;;;;;;0.50;0.40;;;10.10;99.90;;;;;;5051676;28;20196;-77
2022/05/09 00:35:55;;;;;;;0.50;0.40;;;10.10;99.90;;;;;;5051468;28;20918;-77
2022/05/09 00:38:22;;;;;;;0.90;0.90;;;10.10;99.90;;;;;;5050924;28;20216;-76
2022/05/09 00:43:35;;;;;;;0.50;0.50;;;10.20;99.90;;;;;;5051027;28;20201;-77
2022/05/09 00:46:02;;;;;;;0.50;0.40;;;10.20;99.90;;;;;;5051279;28;20224;-76
2022/05/09 00:48:28;;;;;;;0.50;0.40;;;10.10;99.90;;;;;;5051092;28;20608;-77
2022/05/09 00:50:56;;;;;;;0.50;0.40;;;10.00;99.90;;;;;;5050686;28;20196;-77
2022/05/09 00:53:25;;;;;;;0.50;0.40;;;10.00;99.90;;;;;;5051340;28;20202;-76
2022/05/09 00:55:56;;;;;;;0.50;0.40;;;10.00;99.90;;;;;;5051143;28;20224;-76
2022/05/09 00:58:27;;;;;;;0.50;0.40;;;10.00;99.90;;;;;;5050991;28;20224;-77
2022/05/09 01:00:56;;;;;;;0.50;0.40;;;10.00;99.90;;;;;;5051112;28;20192;-76
2022/05/09 01:03:40;;;;;;;0.50;0.40;;;10.00;99.90;;;;;;5051356;28;20197;-77
2022/05/09 01:06:07;;;;;;;0.50;0.40;;;10.00;99.90;;;;;;5051437;28;20219;-76
2022/05/09 01:08:34;;;;;;;0.50;0.40;;;10.00;99.90;;;;;;5050876;28;20192;-77
2022/05/09 01:11:04;;;;;;;0.50;0.40;;;10.00;99.90;;;;;;5050820;28;20664;-76
2022/05/09 01:13:35;;;;;;;0.50;0.40;;;10.00;99.90;;;;;;5050934;28;20733;-77
2022/05/09 01:16:05;;;;;;;0.50;0.40;;;10.00;99.90;;;;;;5051450;28;20220;-76
2022/05/09 01:18:33;;;;;;;0.50;0.40;;;10.00;99.90;;;;;;5050604;28;20225;-77
2022/05/09 01:21:00;;;;;;;0.50;0.40;;;10.00;99.90;;;;;;5050930;28;20195;-76
2022/05/09 01:23:33;;;;;;;0.50;0.40;;;10.00;99.90;;;;;;5050943;28;20720;-77
2022/05/09 01:26:00;;;;;;;0.50;0.40;;;9.90;99.90;;;;;;5051204;28;20223;-76
2022/05/09 01:28:27;;;;;;;0.50;0.40;;;9.90;99.90;;;;;;5050577;28;20196;-79
2022/05/09 01:30:56;;;;;;;0.50;0.40;;;9.80;99.90;;;;;;5053291;28;20200;-77
2022/05/09 01:33:29;;;;;;;0.50;0.40;;;9.90;99.90;;;;;;5055003;28;20200;-77
2022/05/09 01:36:00;;;;;;;0.50;0.40;;;9.90;99.90;;;;;;5054552;28;20704;-79
2022/05/09 01:38:33;;;;;;;0.50;0.40;;;9.80;99.90;;;;;;5054355;28;20218;-76
2022/05/09 01:41:00;;;;;;;0.50;0.40;;;9.80;99.90;;;;;;5055133;28;20188;-77
2022/05/09 01:43:33;;;;;;;0.50;0.40;;;9.70;99.90;;;;;;5054854;28;20207;-77
2022/05/09 01:46:00;;;;;;;0.50;0.40;;;9.70;99.90;;;;;;5054911;28;20258;-77
2022/05/09 01:51:11;;;;;;;0.50;0.40;;;9.70;99.90;;;;;;5054311;28;20268;-76
2022/05/09 01:53:39;;;;;;;0.50;0.40;;;9.70;99.90;;;;;;5054552;28;20205;-76
2022/05/09 01:56:06;;;;;;;0.50;0.40;;;9.70;99.90;;;;;;5054437;28;20222;-76
2022/05/09 01:58:33;;;;;;;0.60;0.60;;;9.70;99.90;;;;;;5054074;28;20591;-78
2022/05/09 02:01:00;;;;;;;0.50;0.40;;;9.80;99.90;;;;;;5054360;28;20203;-77
2022/05/09 02:03:26;;;;;;;0.50;0.40;;;9.80;99.90;;;;;;5054696;28;20197;-76
2022/05/09 02:05:53;;;;;;;0.50;0.40;;;9.80;99.90;;;;;;5054271;28;20223;-76
2022/05/09 02:08:20;;;;;;;0.50;0.40;;;9.80;99.90;;;;;;5054118;28;20196;-76
2022/05/09 02:10:48;;;;;;;0.50;0.43;;;9.80;99.90;;;;;;5054665;28;20200;-76
2022/05/09 02:13:14;;;;;;;0.50;0.40;;;9.80;99.90;;;;;;5054132;28;20683;-76
2022/05/09 02:15:41;;;;;;;0.50;0.40;;;9.80;99.90;;;;;;5054263;28;20215;-76
2022/05/09 02:18:08;;;;;;;0.50;0.40;;;9.80;99.90;;;;;;5053549;28;20218;-76
2022/05/09 02:20:35;;;;;;;0.50;0.40;;;9.80;99.90;;;;;;5054506;28;20571;-76
2022/05/09 02:23:01;;;;;;;0.50;0.40;;;9.80;99.90;;;;;;5053651;28;20203;-76
2022/05/09 02:25:29;;;;;;;0.50;0.40;;;9.80;99.90;;;;;;5053985;28;20618;-75
2022/05/09 02:27:57;;;;;;;0.50;0.40;;;9.80;99.90;;;;;;5053512;28;20195;-76
2022/05/09 02:30:24;;;;;;;0.50;0.40;;;9.80;99.90;;;;;;5054017;28;20199;-75
2022/05/09 02:32:52;;;;;;;0.50;0.40;;;9.80;99.90;;;;;;5053654;28;20661;-76
2022/05/09 02:35:20;;;;;;;0.50;0.50;;;9.80;99.90;;;;;;5053953;28;20227;-76
2022/05/09 02:37:48;;;;;;;0.50;0.40;;;9.80;99.90;;;;;;5053724;28;20276;-76
2022/05/09 02:40:15;;;;;;;0.50;0.40;;;9.80;99.90;;;;;;5053550;28;20723;-76
2022/05/09 02:42:42;;;;;;;0.50;0.40;;;9.70;99.90;;;;;;5053034;28;20202;-76
2022/05/09 02:45:11;;;;;;;0.50;0.40;;;9.70;99.90;;;;;;5053412;28;20222;-76
2022/05/09 02:47:40;;;;;;;0.50;0.40;;;9.60;99.90;;;;;;5053303;28;20220;-78
2022/05/09 02:50:09;;;;;;;0.50;0.40;;;9.60;99.90;;;;;;5053548;28;20671;-76
2022/05/09 02:52:36;;;;;;;0.50;0.40;;;9.50;99.90;;;;;;5053008;28;20229;-76
2022/05/09 02:55:03;;;;;;;0.50;0.40;;;9.50;99.90;;;;;;5053318;28;20300;-75
2022/05/09 02:57:30;;;;;;;0.50;0.40;;;9.50;99.90;;;;;;5053129;28;20198;-75
2022/05/09 02:59:56;;;;;;;0.50;0.40;;;9.50;99.90;;;;;;5053053;28;20715;-75
2022/05/09 03:02:25;;;;;;;0.50;0.40;;;9.50;99.90;;;;;;5053581;28;20195;-76
2022/05/09 03:04:51;;;;;;;0.50;0.40;;;9.50;99.90;;;;;;5052896;28;20203;-75
2022/05/09 03:07:20;;;;;;;0.50;0.40;;;9.40;99.90;;;;;;5052878;28;20195;-76
2022/05/09 03:09:49;;;;;;;0.50;0.40;;;9.30;99.90;;;;;;5053035;28;20197;-75
2022/05/09 03:12:18;;;;;;;0.50;0.40;;;9.30;99.90;;;;;;5053274;28;20206;-76
2022/05/09 03:14:45;;;;;;;0.50;0.40;;;9.30;99.90;;;;;;5052997;28;20661;-76
2022/05/09 03:17:12;;;;;;;0.50;0.40;;;9.20;99.90;;;;;;5052994;28;20695;-77
2022/05/09 03:19:40;;;;;;;0.50;0.40;;;9.20;99.90;;;;;;5052782;28;20217;-75
2022/05/09 03:22:07;;;;;;;0.50;0.40;;;9.20;99.90;;;;;;5053033;28;20198;-75
2022/05/09 03:24:34;;;;;;;0.50;0.40;;;9.20;99.90;;;;;;5053246;28;20273;-76
2022/05/09 03:27:02;;;;;;;0.50;0.40;;;9.20;99.90;;;;;;5052614;28;20286;-76
2022/05/09 03:29:29;;;;;;;0.50;0.40;;;9.20;99.90;;;;;;5052900;28;20294;-76
2022/05/09 03:31:55;;;;;;;0.50;0.40;;;9.20;99.90;;;;;;5052423;28;20199;-77
2022/05/09 03:34:22;;;;;;;0.50;0.40;;;9.30;99.90;;;;;;5052579;28;20230;-76
2022/05/09 03:36:52;;;;;;;0.50;0.40;;;9.30;99.90;;;;;;5052876;28;20222;-75
2022/05/09 03:39:19;;;;;;;0.50;0.40;;;9.30;99.90;;;;;;5052495;28;20306;-76
2022/05/09 03:41:45;;;;;;;0.50;0.40;;;9.30;99.90;;;;;;5052645;28;20198;-75
2022/05/09 03:44:12;;;;;;;0.50;0.40;;;9.30;99.90;;;;;;5052273;28;20202;-75
2022/05/09 03:46:39;;;;;;;0.50;0.50;;;9.30;99.90;;;;;;5052565;28;20229;-75
2022/05/09 03:49:05;;;;;;;0.50;0.40;;;9.30;99.90;;;;;;5052223;28;20564;-76
2022/05/09 03:51:32;;;;;;;0.50;0.40;;;9.30;99.90;;;;;;5052410;28;20199;-76
2022/05/09 03:54:00;;;;;;;0.50;0.40;;;9.30;99.90;;;;;;5052030;28;20194;-76
2022/05/09 03:56:27;;;;;;;0.50;0.40;;;9.40;99.90;;;;;;5051794;28;20573;-76
2022/05/09 03:58:54;;;;;;;0.50;0.40;;;9.40;99.90;;;;;;5052156;28;20230;-76
2022/05/09 04:01:21;;;;;;;0.50;0.40;;;9.50;99.90;;;;;;5052541;28;20194;-76
2022/05/09 04:03:48;;;;;;;0.50;0.40;;;9.50;99.90;;;;;;5052159;28;20604;-76
2022/05/09 04:06:15;;;;;;;0.50;0.40;;;9.60;99.90;;;;;;5052331;28;20211;-76
2022/05/09 04:08:42;;;;;;;0.50;0.40;;;9.60;99.90;;;;;;5051869;28;20215;-75
2022/05/09 04:11:10;;;;;;;0.50;0.40;;;9.60;99.90;;;;;;5052096;28;20202;-76
2022/05/09 04:13:37;;;;;;;0.50;0.40;;;9.60;99.90;;;;;;5052430;28;20199;-75
2022/05/09 04:18:48;;;;;;;0.50;0.40;;;9.70;99.90;;;;;;5051364;28;20227;-78
2022/05/09 04:21:15;;;;;;;0.50;0.40;;;9.70;99.90;;;;;;5051912;28;20191;-75
2022/05/09 04:23:42;;;;;;;0.50;0.40;;;9.70;99.90;;;;;;5052063;28;20195;-76
2022/05/09 04:26:11;;;;;;;0.50;0.40;;;9.70;99.90;;;;;;5051837;28;20580;-76
2022/05/09 04:28:38;;;;;;;0.50;0.40;;;9.60;99.90;;;;;;5050929;28;20196;-76
2022/05/09 04:31:05;;;;;;;0.50;0.40;;;9.60;99.90;;;;;;5051826;28;20204;-77
2022/05/09 04:33:31;;;;;;;0.50;0.40;;;9.70;99.90;;;;;;5051740;28;20203;-76
2022/05/09 04:35:59;;;;;;;0.50;0.40;;;9.70;99.90;;;;;;5051636;28;20219;-75
2022/05/09 04:38:26;;;;;;;0.50;0.40;;;9.70;99.90;;;;;;5050060;28;20672;-76
2022/05/09 04:40:56;;;;;;;0.50;0.40;;;9.70;99.90;;;;;;5050232;28;20220;-76
2022/05/09 04:43:26;;;;;;;0.50;0.40;;;9.80;99.90;;;;;;5051985;28;20188;-76
2022/05/09 04:45:53;;;;;;;0.50;0.40;;;9.80;99.90;;;;;;5051695;28;20303;-74
2022/05/09 04:48:21;;;;;;;0.50;0.40;;;9.80;99.90;;;;;;5050770;28;20680;-77
2022/05/09 04:50:49;;;;;;;0.50;0.40;;;9.90;99.90;;;;;;5051256;28;20198;-76
2022/05/09 04:53:17;;;;;;;0.50;0.40;;;10.00;99.90;;;;;;5051420;28;20198;-76
2022/05/09 04:55:43;;;;;;;1.27;1.27;;;10.10;99.90;;;;;;5050879;28;20224;-76
2022/05/09 04:58:13;;;;;;;0.50;0.40;;;10.20;99.90;;;;;;5050791;28;20917;-76
2022/05/09 05:00:41;;;;;;;0.50;0.40;;;10.20;99.90;;;;;;5051330;28;20303;-76
2022/05/09 05:03:08;;;;;;;0.50;0.40;;;10.30;99.90;;;;;;5051193;28;20196;-76
2022/05/09 05:05:36;;;;;;;0.50;0.40;;;10.50;99.90;;;;;;5050504;28;20228;-78
2022/05/09 05:08:03;;;;;;;0.50;0.40;;;10.60;99.90;;;;;;5051306;28;20199;-76
2022/05/09 05:10:31;;;;;;;0.50;0.40;;;10.70;99.90;;;;;;5051037;28;20194;-74
2022/05/09 05:12:59;;;;;;;0.50;0.40;;;10.80;99.90;;;;;;5050968;28;20196;-77
2022/05/09 05:15:26;;;;;;;0.50;0.40;;;10.80;99.90;;;;;;5050881;28;20237;-76
2022/05/09 05:17:54;;;;;;;0.50;0.40;;;10.90;99.90;;;;;;5050429;28;20209;-75
2022/05/09 05:20:21;;;;;;;0.50;0.40;;;10.80;99.90;;;;;;5051208;28;20218;-76
2022/05/09 05:22:50;;;;;;;0.50;0.40;;;10.90;99.90;;;;;;5050880;28;20671;-74
2022/05/09 05:25:19;;;;;;;0.68;0.68;;;10.90;99.90;;;;;;5051156;28;20224;-77
2022/05/09 05:27:47;;;;;;;0.50;0.40;;;10.90;99.90;;;;;;5050996;28;20231;-76
2022/05/09 05:30:15;;;;;;;0.50;0.40;;;10.90;99.90;;;;;;5051606;28;20505;-74
2022/05/09 05:32:42;;;;;;;0.50;0.50;;;10.90;99.90;;;;;;5050191;28;20204;-76
2022/05/09 05:35:15;;;;;;;0.50;0.40;;;11.00;99.90;;;;;;5050381;28;20562;-75
2022/05/09 05:37:42;;;;;;;0.50;0.40;;;11.10;99.90;;;;;;5047648;28;20230;-71
2022/05/09 05:40:10;;;;;;;0.50;0.40;;;11.30;99.90;;;;;;5046064;28;20283;-75
2022/05/09 05:42:39;;;;;;;0.50;0.40;;;11.40;99.90;;;;;;5050126;28;20248;-76
2022/05/09 05:45:07;;;;;;;0.50;0.40;;;11.60;99.90;;;;;;5049392;28;20225;-77
2022/05/09 05:47:33;;;;;;;0.50;0.40;;;11.80;99.90;;;;;;5050344;28;20548;-76
2022/05/09 05:50:00;;;;;;;0.88;0.88;;;12.00;99.90;;;;;;5049910;28;20194;-76
2022/05/09 05:52:28;;;;;;;0.90;0.75;;;12.20;99.90;;;;;;5050473;28;20203;-76
2022/05/09 05:54:55;;;;;;;0.55;0.50;;;12.40;99.90;;;;;;5050108;28;20210;-77
2022/05/09 05:57:25;;;;;;;0.50;0.40;;;12.60;99.90;;;;;;5050364;28;20580;-76
2022/05/09 05:59:54;;;;;;;0.97;0.97;;;13.40;99.90;;;;;;5050510;28;20711;-76
2022/05/09 06:02:21;;;;;;;1.27;1.17;;;14.80;99.90;;;;;;5050468;28;20445;-77
2022/05/09 06:04:49;;;;;;;0.50;0.40;;;16.00;99.90;;;;;;5049749;28;20433;-76
2022/05/09 06:07:16;;;;;;;0.50;0.40;;;16.90;99.90;;;;;;5050383;28;20442;-75
2022/05/09 06:09:45;;;;;;;0.50;0.40;;;18.00;99.90;;;;;;5050311;28;20837;-75
2022/05/09 06:12:14;;;;;;;0.50;0.30;;;19.00;98.30;;;;;;5050360;28;20444;-76
2022/05/09 06:14:41;;;;;;;1.70;1.40;;;20.00;92.10;;;;;;5049976;28;20441;-76
2022/05/09 06:17:09;;;;;;;0.50;0.40;;;20.90;81.70;;;;;;5051177;28;20447;-77
2022/05/09 06:19:36;;;;;;;0.50;0.40;;;21.60;78.80;;;;;;5053423;28;20476;-77
2022/05/09 06:22:03;;;;;;;0.50;0.40;;;22.20;72.90;;;;;;5054202;28;20468;-76
2022/05/09 06:24:30;;;;;;;0.50;0.40;;;22.80;72.30;;;;;;5053519;28;20445;-78
2022/05/09 06:26:58;;;;;;;0.50;0.30;;;23.80;70.70;;;;;;5053650;28;20464;-78
2022/05/09 06:29:25;;;;;;;0.50;0.30;;;24.20;64.50;;;;;;5053502;28;20494;-77
2022/05/09 06:31:52;;;;;;;0.50;0.30;;;24.90;63.90;;;;;;5053632;28;20441;-77
2022/05/09 06:34:18;;;;;;;0.50;0.30;;;25.80;60.90;;;;;;5053611;28;20433;-77
2022/05/09 06:36:45;;;;;;;0.50;0.37;;;26.50;57.50;;;;;;5053783;28;20464;-77
2022/05/09 06:39:13;;;;;;;14.47;4.63;;;26.30;56.60;;;;;;5053133;28;20954;-77
2022/05/09 06:41:40;;;;;;;0.50;0.30;;;26.40;56.10;;;;;;5053899;28;20433;-77
2022/05/09 06:44:09;;;;;;;0.50;0.30;;;26.40;55.60;;;;;;5046826;28;20969;-77
2022/05/09 06:46:36;;;;;;;0.60;0.60;;;26.00;55.60;;;;;;5032045;28;20458;-77
2022/05/09 06:49:03;;;;;;;0.50;0.30;;;26.30;55.30;;;;;;5032457;28;20445;-79
2022/05/09 06:51:29;;;;;;;0.50;0.30;;;26.60;54.60;;;;;;5032444;28;20441;-77
2022/05/09 06:53:56;;;;;;;0.60;0.50;;;27.00;54.00;;;;;;5032894;28;20442;-77
2022/05/09 06:56:23;;;;;;;0.50;0.30;;;27.00;53.60;;;;;;5032959;28;20473;-77
2022/05/09 06:58:50;;;;;;;0.50;0.37;;;27.60;53.60;;;;;;5033185;28;20442;-77
2022/05/09 07:01:19;;;;;;;0.50;0.30;;;27.30;52.50;;;;;;5033479;28;20501;-77
2022/05/09 07:03:47;;;;;;;0.60;0.60;;;27.80;53.20;;;;;;5032813;28;20496;-76
2022/05/09 07:06:15;;;;;;;0.50;0.40;;;28.10;52.50;;;;;;5032699;28;20987;-76
2022/05/09 07:08:42;;;;;;;0.50;0.30;;;28.70;51.70;;;;;;5033097;28;20880;-75
2022/05/09 07:11:11;;;;;;;0.50;0.30;;;28.50;51.40;;;;;;5033145;28;20438;-76
2022/05/09 07:13:37;;;;;;;0.50;0.30;;;29.50;50.50;;;;;;5033068;28;20474;-76
2022/05/09 07:16:05;;;;;;;0.50;0.30;;;30.00;50.20;;;;;;5032981;28;20470;-75
2022/05/09 07:18:33;;;;;;;0.50;0.30;;;30.30;48.40;;;;;;5032467;28;20438;-76
2022/05/09 07:21:00;;;;;;;0.50;0.30;;;30.80;48.40;;;;;;5032449;28;20555;-76
2022/05/09 07:23:28;;;;;;;0.50;0.30;;;31.10;47.80;;;;;;5032641;28;20994;-75
2022/05/09 07:25:56;;;;;;;0.50;0.50;;;31.90;47.30;;;;;;5032352;28;20465;-76
2022/05/09 07:28:23;;;;;;;0.50;0.50;;;32.70;46.10;;;;;;5032249;28;20982;-75
2022/05/09 07:30:51;;;;;;;0.50;0.30;;;33.10;46.10;;;;;;5032612;28;20434;-75
2022/05/09 07:33:19;;;;;;;0.50;0.30;;;33.70;45.20;;;;;;5032037;28;20438;-75
2022/05/09 07:35:48;;;;;;;0.50;0.37;;;33.30;44.60;;;;;;5032149;28;20816;-76
2022/05/09 07:38:15;;;;;;;0.50;0.30;;;33.80;46.30;;;;;;5032207;28;20434;-76
2022/05/09 07:40:43;;;;;;;0.50;0.30;;;33.80;44.20;;;;;;5032433;28;20839;-74
2022/05/09 07:43:13;;;;;;;0.50;0.30;;;34.00;43.90;;;;;;5032450;28;20958;-76
2022/05/09 07:45:40;;;;;;;0.50;0.30;;;33.80;43.60;;;;;;5032034;28;20458;-73
2022/05/09 07:48:08;;;;;;;0.50;0.30;;;33.50;44.60;;;;;;5032127;28;20450;-76
2022/05/09 07:50:35;;;;;;;0.50;0.30;;;34.10;44.90;;;;;;5031698;28;20553;-76
2022/05/09 07:53:07;;;;;;;0.50;0.30;;;34.40;43.90;;;;;;5032212;28;20445;-76
2022/05/09 07:55:34;;;;;;;0.50;0.30;;;35.20;43.90;;;;;;5031855;28;20481;-76
2022/05/09 07:58:01;;;;;;;0.50;0.30;;;34.90;42.90;;;;;;5031426;28;20441;-76
2022/05/09 08:00:28;;;;;;;0.50;0.30;;;33.80;42.60;;;;;;5032174;28;20466;-76
2022/05/09 08:02:54;;;;;;;0.43;0.30;;;34.20;44.00;;;;;;5032113;28;20436;-76
2022/05/09 08:05:21;;;;;;;0.50;0.30;;;34.90;44.30;;;;;;5032001;28;20466;-76
2022/05/09 08:07:49;;;;;;;0.50;0.37;;;35.60;44.50;;;;;;5031395;28;20480;-76
2022/05/09 08:10:17;;;;;;;0.50;0.30;;;35.90;42.90;;;;;;5032049;28;20442;-76
2022/05/09 08:12:44;;;;;;;0.40;0.30;;;35.10;42.60;;;;;;5031773;28;20438;-76
2022/05/09 08:15:14;;;;;;;0.40;0.40;;;35.30;42.30;;;;;;5031433;28;20481;-76
2022/05/09 08:17:41;;;;;;;0.40;0.30;;;35.70;41.60;;;;;;5031324;28;20442;-75
2022/05/09 08:20:09;;;;;;;0.40;0.30;;;34.50;41.80;;;;;;5031282;28;20485;-76
2022/05/09 08:22:36;;;;;;;0.50;0.30;;;34.80;41.70;;;;;;5031775;28;20450;-76
2022/05/09 08:25:04;;;;;;;0.43;0.30;;;34.50;43.00;;;;;;5031923;28;20801;-76
2022/05/09 08:27:32;;;;;;;0.40;0.30;;;35.30;44.60;;;;;;5031087;28;20441;-76
2022/05/09 08:29:59;;;;;;;0.50;0.30;;;35.90;41.60;;;;;;5031154;28;20449;-75
2022/05/09 08:32:26;;;;;;;0.40;0.30;;;36.30;42.60;;;;;;5031578;28;20445;-76
2022/05/09 08:34:54;;;;;;;0.40;0.30;;;36.60;42.30;;;;;;5031464;28;20438;-76
2022/05/09 08:37:21;;;;;;;0.40;0.30;;;37.00;42.10;;;;;;5031328;28;20444;-75
2022/05/09 08:39:48;;;;;;;0.40;0.30;;;37.40;41.10;;;;;;5030654;28;20441;-73
2022/05/09 08:42:19;;;;;;;0.50;0.40;;;37.10;40.50;;;;;;5031342;28;20441;-77
2022/05/09 08:45:18;;;;;;;0.40;0.30;;;36.40;43.00;;;;;;5031406;28;21291;-75
2022/05/09 08:47:55;;;;;;;0.40;0.30;;;35.70;41.40;;;;;;5030936;28;20500;-73
2022/05/09 08:50:29;;;;;;;0.50;0.50;;;35.90;42.40;;;;;;5031075;28;20414;-73
2022/05/09 08:52:59;;;;;;;0.50;0.30;;;34.90;42.30;;;;;;5030975;28;20422;-75
2022/05/09 08:55:28;;;;;;;0.50;0.30;;;33.40;46.10;;;;;;5030914;28;20505;-75
2022/05/09 08:58:00;;;;;;;0.40;0.30;;;34.60;46.10;;;;;;5030760;28;20849;-75
2022/05/09 09:00:30;;;;;;;0.43;0.30;;;36.00;44.30;;;;;;5031149;28;20520;-75
2022/05/09 09:03:01;;;;;;;0.40;0.30;;;35.80;42.50;;;;;;5031137;28;20433;-75
2022/05/09 09:05:34;;;;;;;0.50;0.40;;;34.60;44.00;;;;;;5031151;28;20469;-75
2022/05/09 09:08:09;;;;;;;0.77;0.77;;;34.30;44.30;;;;;;5030292;28;20457;-75
2022/05/09 09:10:44;;;;;;;0.50;0.30;;;34.00;45.60;;;;;;5030959;28;20426;-75
2022/05/09 09:13:23;;;;;;;0.60;0.47;;;34.60;45.40;;;;;;5030913;28;20454;-76
2022/05/09 09:16:05;;;;;;;0.50;0.30;;;33.40;45.60;;;;;;5030978;28;20871;-75
2022/05/09 09:18:39;;;;;;;1.07;1.07;;;33.40;47.10;;;;;;5030626;28;20426;-75
2022/05/09 09:21:12;;;;;;;0.50;0.30;;;34.00;46.20;;;;;;5030880;28;20460;-74
2022/05/09 09:24:04;;;;;;;0.50;0.30;;;34.30;47.20;;;;;;5030772;28;20461;-75
2022/05/09 09:26:36;;;;;;;1.00;0.80;;;35.20;44.90;;;;;;5030515;28;20466;-75
2022/05/09 09:29:07;;;;;;;0.40;0.30;;;35.20;45.00;;;;;;5030457;28;20824;-75
2022/05/09 09:31:38;;;;;;;0.40;0.40;;;35.70;45.40;;;;;;5029920;28;20980;-76
2022/05/09 09:34:14;;;;;;;0.40;0.30;;;35.40;44.20;;;;;;5030587;28;20842;-76
2022/05/09 09:36:48;;;;;;;0.40;0.30;;;35.40;46.10;;;;;;5030892;28;20465;-75
2022/05/09 09:39:19;;;;;;;0.40;0.30;;;36.50;45.80;;;;;;5030214;28;20452;-76
2022/05/09 09:41:46;;;;;;;0.40;0.30;;;36.70;44.90;;;;;;5030743;28;20481;-76
2022/05/09 09:44:16;;;;;;;0.40;0.40;;;37.80;44.20;;;;;;5030312;28;20556;-75
2022/05/09 09:47:06;;;;;;;0.60;0.40;;;37.60;42.50;;;;;;5030299;28;20458;-72
2022/05/09 09:49:35;;;;;;;0.40;0.40;;;36.90;44.20;;;;;;5030288;28;20532;-75
2022/05/09 09:52:02;;;;;;;0.40;0.30;;;37.30;42.90;;;;;;5032316;28;20433;-76
2022/05/09 09:54:32;;;;;;;0.40;0.30;;;37.70;44.20;;;;;;5034617;28;20499;-75
2022/05/09 09:57:17;;;;;;;0.40;0.30;;;37.70;43.30;;;;;;5034178;28;20481;-75
2022/05/09 09:59:45;;;;;;;0.40;0.30;;;37.40;42.60;;;;;;5034249;28;20437;-77
2022/05/09 10:02:17;;;;;;;0.50;0.43;;;37.10;44.10;;;;;;5034467;28;20958;-74
2022/05/09 10:04:44;;;;;;;0.40;0.30;;;36.60;43.70;;;;;;5034811;28;20495;-75
2022/05/09 10:07:16;;;;;;;0.40;0.30;;;36.40;45.10;;;;;;5033807;28;20437;-73
2022/05/09 10:09:44;;;;;;;3.33;0.83;;;35.80;44.30;;;;;;5033875;28;20847;-76
2022/05/09 10:12:16;;;;;;;0.43;0.30;;;36.30;45.90;;;;;;5034298;28;20437;-76
2022/05/09 10:14:43;;;;;;;0.60;0.60;;;37.10;45.80;;;;;;5034173;28;20433;-76
2022/05/09 10:17:18;;;;;;;0.40;0.30;;;37.70;43.80;;;;;;5033948;28;20443;-76
2022/05/09 10:19:46;;;;;;;0.50;0.40;;;38.20;43.70;;;;;;5033922;28;20924;-76
2022/05/09 10:25:09;;;;;;;0.40;0.40;;;38.20;42.40;;;;;;5033916;28;20445;-75
2022/05/09 10:27:37;;;;;;;0.40;0.30;;;36.70;43.00;;;;;;5033550;28;20426;-75
2022/05/09 10:30:06;;;;;;;0.50;0.47;;;34.60;45.10;;;;;;5033326;28;20442;-75
2022/05/09 10:32:42;;;;;;;0.43;0.30;;;34.50;46.20;;;;;;5033853;28;20438;-75
2022/05/09 10:35:15;;;;;;;0.43;0.30;;;35.10;47.50;;;;;;5033710;28;20464;-75
2022/05/09 10:37:48;;;;;;;0.67;0.60;;;35.80;46.40;;;;;;5033428;28;20788;-75
2022/05/09 10:40:21;;;;;;;0.40;0.30;;;35.80;45.00;;;;;;5033140;28;20486;-76
2022/05/09 10:42:51;;;;;;;0.40;0.30;;;35.20;47.90;;;;;;5034172;28;20481;-76
2022/05/09 10:45:21;;;;;;;0.40;0.30;;;35.90;45.50;;;;;;5033407;28;20804;-76
2022/05/09 10:47:56;;;;;;;0.40;0.30;;;36.80;44.60;;;;;;5032412;28;20437;-73
2022/05/09 10:50:28;;;;;;;0.40;0.30;;;36.50;44.40;;;;;;5032496;28;20437;-75
2022/05/09 10:53:06;;;;;;;0.60;0.60;;;36.80;44.00;;;;;;5033459;28;20442;-75
2022/05/09 10:55:38;;;;;;;0.53;0.50;;;36.40;44.40;;;;;;5032888;28;20473;-76
2022/05/09 10:58:09;;;;;;;0.47;0.30;;;35.20;45.60;;;;;;5032504;28;20438;-75
2022/05/09 11:00:42;;;;;;;0.50;0.40;;;34.70;46.40;;;;;;5033164;28;20445;-75
2022/05/09 11:03:19;;;;;;;0.40;0.30;;;35.50;46.70;;;;;;5032377;28;20438;-76
2022/05/09 11:06:13;;;;;;;0.50;0.40;;;35.50;45.60;;;;;;5033002;28;20465;-75
2022/05/09 11:08:54;;;;;;;0.50;0.47;;;34.90;45.60;;;;;;5032736;28;20414;-75
2022/05/09 11:11:29;;;;;;;0.43;0.30;;;34.40;47.20;;;;;;5032700;28;20418;-76
2022/05/09 11:14:08;;;;;;;0.50;0.30;;;35.00;46.40;;;;;;5032560;28;20781;-76
2022/05/09 11:16:47;;;;;;;0.60;0.50;;;35.00;45.50;;;;;;5032929;28;20488;-76
2022/05/09 11:19:29;;;;;;;0.50;0.40;;;35.50;46.70;;;;;;5032407;28;20426;-75
2022/05/09 11:22:03;;;;;;;0.50;0.30;;;33.40;46.60;;;;;;5032476;28;20480;-75
2022/05/09 11:24:58;;;;;;;0.50;0.30;;;33.00;48.50;;;;;;5032961;28;20924;-75
2022/05/09 11:27:40;;;;;;;0.43;0.30;;;33.40;47.90;;;;;;5032900;28;20437;-76
2022/05/09 11:30:23;;;;;;;0.67;0.67;;;33.50;49.10;;;;;;5032437;28;20936;-75
2022/05/09 11:33:02;;;;;;;0.50;0.40;;;33.70;47.70;;;;;;5033325;28;20804;-74
2022/05/09 11:35:34;;;;;;;0.50;0.30;;;33.40;47.60;;;;;;5032382;28;20520;-72
2022/05/09 11:38:15;;;;;;;0.50;0.30;;;33.40;47.10;;;;;;5032797;28;20429;-75
2022/05/09 11:40:50;;;;;;;0.50;0.30;;;33.70;47.00;;;;;;5032901;28;20422;-75
2022/05/09 11:43:37;;;;;;;0.50;0.30;;;33.70;48.80;;;;;;5032655;28;20430;-76
2022/05/09 11:46:19;;;;;;;0.50;0.40;;;34.30;48.70;;;;;;5032204;28;20461;-75
2022/05/09 11:48:58;;;;;;;0.50;0.40;;;34.30;46.80;;;;;;5031950;28;20914;-71
2022/05/09 11:51:40;;;;;;;0.40;0.30;;;35.00;46.30;;;;;;5031387;28;20788;-75
2022/05/09 11:54:11;;;;;;;0.50;0.30;;;35.10;45.00;;;;;;5032330;28;20418;-75
2022/05/09 11:56:43;;;;;;;0.50;0.30;;;33.20;45.70;;;;;;5032432;28;20519;-75
2022/05/09 11:59:14;;;;;;;0.50;0.37;;;33.90;46.00;;;;;;5031558;28;20434;-75
2022/05/09 12:01:58;;;;;;;0.40;0.30;;;34.10;46.00;;;;;;5032125;28;20890;-75
2022/05/09 12:04:30;;;;;;;0.50;0.30;;;33.80;46.70;;;;;;5031897;28;20438;-76
2022/05/09 12:06:58;;;;;;;0.40;0.30;;;33.70;46.00;;;;;;5031958;28;20488;-76
2022/05/09 12:09:56;;;;;;;0.60;0.60;;;33.70;46.10;;;;;;5031415;28;20446;-75
2022/05/09 12:12:45;;;;;;;0.40;0.30;;;34.10;45.30;;;;;;5032004;28;20441;-75
2022/05/09 12:15:49;;;;;;;0.93;0.70;;;34.40;49.40;;;;;;5031770;28;20465;-75
2022/05/09 12:18:31;;;;;;;0.70;0.70;;;34.90;44.70;;;;;;5031582;28;20935;-75
2022/05/09 12:21:14;;;;;;;0.43;0.30;;;34.70;44.70;;;;;;5031502;28;20581;-75
2022/05/09 12:24:09;;;;;;;0.40;0.33;;;35.20;45.80;;;;;;5031720;28;20525;-75
2022/05/09 12:26:37;;;;;;;0.50;0.50;;;35.20;44.30;;;;;;5031550;28;20490;-75
2022/05/09 12:29:28;;;;;;;0.40;0.30;;;35.70;44.60;;;;;;5031628;28;21002;-75
2022/05/09 12:31:57;;;;;;;0.40;0.30;;;36.30;44.30;;;;;;5031665;28;20441;-75
2022/05/09 12:34:29;;;;;;;0.40;0.30;;;35.30;43.20;;;;;;5031070;28;20863;-75
2022/05/09 12:36:55;;;;;;;0.40;0.30;;;35.70;43.60;;;;;;5030969;28;20462;-75
2022/05/09 12:39:32;;;;;;;0.40;0.30;;;34.90;43.70;;;;;;5031596;28;20449;-75
2022/05/09 12:42:01;;;;;;;1.13;1.13;;;34.20;44.80;;;;;;5031207;28;20481;-75
2022/05/09 12:44:34;;;;;;;0.73;0.70;;;33.90;45.10;;;;;;5031624;28;20434;-75
2022/05/09 12:47:04;;;;;;;0.50;0.40;;;34.20;45.50;;;;;;5030973;28;20468;-75
2022/05/09 12:49:36;;;;;;;0.60;0.50;;;34.50;45.20;;;;;;5031154;28;20807;-76
2022/05/09 12:52:04;;;;;;;0.40;0.30;;;34.90;44.20;;;;;;5030587;28;20430;-76
2022/05/09 12:54:33;;;;;;;0.40;0.30;;;34.80;45.00;;;;;;5031029;28;20457;-75
2022/05/09 12:57:03;;;;;;;0.40;0.30;;;35.70;44.80;;;;;;5031331;28;20473;-74
2022/05/09 12:59:45;;;;;;;0.40;0.30;;;36.00;43.20;;;;;;5030612;28;20438;-75
2022/05/09 13:02:21;;;;;;;0.40;0.30;;;36.00;42.60;;;;;;5031078;28;20469;-76
2022/05/09 13:04:49;;;;;;;0.40;0.30;;;36.40;43.00;;;;;;5031003;28;20840;-76
2022/05/09 13:07:16;;;;;;;0.73;0.60;;;36.40;42.00;;;;;;5030955;28;20437;-73
2022/05/09 13:09:49;;;;;;;0.40;0.30;;;35.80;41.50;;;;;;5030833;28;20449;-75
2022/05/09 13:12:24;;;;;;;0.40;0.30;;;34.30;42.20;;;;;;5031285;28;20434;-75
2022/05/09 13:14:55;;;;;;;0.50;0.30;;;34.00;43.50;;;;;;5031243;28;20418;-75
2022/05/09 13:17:29;;;;;;;0.50;0.30;;;33.00;44.20;;;;;;5030524;28;20430;-75